createdAt,value
2023-02-06T00:00:50.606Z,1.62
2023-02-06T00:01:50.483Z,1.62
2023-02-06T00:02:50.468Z,1.63
2023-02-06T00:03:50.429Z,1.64
2023-02-06T00:04:50.533Z,1.62
2023-02-06T00:05:50.423Z,1.62
2023-02-06T00:06:51.128Z,1.62
2023-02-06T00:07:50.324Z,1.59
2023-02-06T00:08:50.283Z,1.60
2023-02-06T00:10:50.245Z,1.62
2023-02-06T00:11:50.174Z,1.60
2023-02-06T00:12:50.199Z,1.61
2023-02-06T00:13:50.151Z,1.62
2023-02-06T00:14:50.089Z,1.63
2023-02-06T00:15:50.086Z,1.60
2023-02-06T00:16:50.058Z,1.60
2023-02-06T00:17:50.642Z,1.59
2023-02-06T00:18:50.104Z,1.60
2023-02-06T00:19:50.054Z,1.61
2023-02-06T00:20:50.050Z,1.59
2023-02-06T00:21:49.889Z,1.61
2023-02-06T00:22:49.880Z,1.58
2023-02-06T00:23:49.837Z,1.59
2023-02-06T00:24:49.802Z,1.61
2023-02-06T00:25:49.790Z,1.62
2023-02-06T00:26:49.761Z,1.61
2023-02-06T00:27:49.735Z,1.61
2023-02-06T00:28:49.710Z,1.59
2023-02-06T00:29:49.702Z,1.58
2023-02-06T00:30:49.792Z,1.62
2023-02-06T00:31:49.694Z,1.59
2023-02-06T00:32:49.665Z,1.57
2023-02-06T00:33:49.596Z,1.59
2023-02-06T00:34:49.566Z,1.60
2023-02-06T00:35:49.537Z,1.58
2023-02-06T00:36:49.510Z,1.58
2023-02-06T00:37:49.490Z,1.59
2023-02-06T00:38:49.451Z,1.59
2023-02-06T00:39:49.461Z,1.60
2023-02-06T00:40:49.400Z,1.59
2023-02-06T00:41:49.370Z,1.56
2023-02-06T00:42:49.347Z,1.54
2023-02-06T00:43:49.318Z,1.59
2023-02-06T00:44:49.325Z,1.58
2023-02-06T00:45:49.268Z,1.57
2023-02-06T00:46:49.246Z,1.57
2023-02-06T00:47:49.215Z,1.59
2023-02-06T00:48:49.187Z,1.58
2023-02-06T00:49:49.182Z,1.60
2023-02-06T00:50:49.156Z,1.59
2023-02-06T00:51:49.152Z,1.58
2023-02-06T00:52:49.166Z,1.56
2023-02-06T00:53:51.058Z,1.59
2023-02-06T00:54:49.098Z,1.57
2023-02-06T00:55:49.064Z,1.61
2023-02-06T00:56:49.056Z,1.61
2023-02-06T00:57:49.006Z,1.59
2023-02-06T00:58:49.001Z,1.58
2023-02-06T00:59:48.986Z,1.57
2023-02-06T01:00:49.652Z,1.57
2023-02-06T01:01:48.962Z,1.59
2023-02-06T01:02:48.910Z,1.59
2023-02-06T01:03:48.905Z,1.60
2023-02-06T01:04:48.833Z,1.60
2023-02-06T01:05:48.831Z,1.61
2023-02-06T01:06:48.804Z,1.59
2023-02-06T01:07:48.797Z,1.59
2023-02-06T01:08:48.774Z,1.58
2023-02-06T01:09:48.805Z,1.57
2023-02-06T01:10:48.839Z,1.59
2023-02-06T01:11:48.892Z,1.59
2023-02-06T01:12:48.906Z,1.60
2023-02-06T01:13:48.970Z,1.59
2023-02-06T01:14:49.004Z,1.57
2023-02-06T01:15:51.070Z,1.57
2023-02-06T01:16:49.019Z,1.58
2023-02-06T01:17:48.983Z,1.60
2023-02-06T01:18:48.956Z,1.57
2023-02-06T01:19:48.991Z,1.60
2023-02-06T01:20:49.017Z,1.59
2023-02-06T01:21:49.063Z,1.59
2023-02-06T01:22:49.084Z,1.59
2023-02-06T01:23:49.122Z,1.59
2023-02-06T01:24:49.177Z,1.60
2023-02-06T01:25:49.193Z,1.57
2023-02-06T01:26:49.237Z,1.58
2023-02-06T01:27:49.294Z,1.59
2023-02-06T01:28:49.319Z,1.59
2023-02-06T01:29:49.375Z,1.56
2023-02-06T01:30:49.454Z,1.56
2023-02-06T01:31:49.443Z,1.57
2023-02-06T01:32:49.450Z,1.58
2023-02-06T01:33:49.505Z,1.56
2023-02-06T01:34:49.528Z,1.58
2023-02-06T01:35:49.551Z,1.57
2023-02-06T01:36:49.610Z,1.56
2023-02-06T01:37:49.624Z,1.56
2023-02-06T01:38:49.665Z,1.58
2023-02-06T01:39:49.681Z,1.59
2023-02-06T01:40:49.714Z,1.58
2023-02-06T01:41:49.801Z,1.58
2023-02-06T01:42:49.769Z,1.56
2023-02-06T01:43:49.806Z,1.59
2023-02-06T01:44:49.843Z,1.56
2023-02-06T01:45:49.875Z,1.55
2023-02-06T01:46:49.962Z,1.57
2023-02-06T01:47:49.969Z,1.57
2023-02-06T01:48:50.000Z,1.57
2023-02-06T01:49:50.001Z,1.56
2023-02-06T01:50:50.020Z,1.59
2023-02-06T01:51:50.086Z,1.58
2023-02-06T01:52:50.132Z,1.57
2023-02-06T01:53:50.138Z,1.56
2023-02-06T01:54:50.151Z,1.54
2023-02-06T01:55:50.197Z,1.57
2023-02-06T01:56:50.366Z,1.56
2023-02-06T01:57:50.419Z,1.56
2023-02-06T01:58:50.399Z,1.58
2023-02-06T01:59:50.422Z,1.60
2023-02-06T02:00:50.606Z,1.56
2023-02-06T02:01:50.533Z,1.55
2023-02-06T02:03:50.466Z,1.58
2023-02-06T02:04:50.521Z,1.55
2023-02-06T02:05:50.471Z,1.54
2023-02-06T02:06:50.341Z,1.57
2023-02-06T02:07:50.680Z,1.58
2023-02-06T02:08:50.282Z,1.55
2023-02-06T02:09:50.228Z,1.55
2023-02-06T02:10:50.251Z,1.56
2023-02-06T02:11:50.201Z,1.57
2023-02-06T02:12:50.181Z,1.58
2023-02-06T02:13:50.175Z,1.55
2023-02-06T02:14:50.110Z,1.55
2023-02-06T02:15:50.129Z,1.57
2023-02-06T02:16:50.148Z,1.58
2023-02-06T02:17:50.219Z,1.56
2023-02-06T02:18:50.236Z,1.56
2023-02-06T02:19:50.264Z,1.57
2023-02-06T02:20:50.279Z,1.56
2023-02-06T02:21:50.312Z,1.57
2023-02-06T02:22:50.335Z,1.55
2023-02-06T02:23:50.446Z,1.57
2023-02-06T02:25:50.391Z,1.57
2023-02-06T02:26:50.453Z,1.56
2023-02-06T02:27:50.396Z,1.54
2023-02-06T02:28:50.478Z,1.55
2023-02-06T02:29:50.312Z,1.56
2023-02-06T02:30:50.305Z,1.55
2023-02-06T02:31:50.279Z,1.57
2023-02-06T02:32:50.282Z,1.57
2023-02-06T02:33:50.275Z,1.56
2023-02-06T02:34:50.313Z,1.57
2023-02-06T02:35:50.350Z,1.54
2023-02-06T02:36:50.376Z,1.55
2023-02-06T02:37:50.396Z,1.56
2023-02-06T02:38:50.422Z,1.55
2023-02-06T02:39:50.446Z,1.56
2023-02-06T02:40:50.612Z,1.57
2023-02-06T02:41:50.502Z,1.55
2023-02-06T02:42:50.670Z,1.57
2023-02-06T02:43:50.639Z,1.55
2023-02-06T02:44:51.186Z,1.55
2023-02-06T02:45:50.735Z,1.56
2023-02-06T02:46:50.549Z,1.55
2023-02-06T02:47:50.492Z,1.54
2023-02-06T02:48:50.456Z,1.54
2023-02-06T02:49:50.444Z,1.58
2023-02-06T02:50:50.538Z,1.55
2023-02-06T02:51:50.516Z,1.53
2023-02-06T02:52:50.726Z,1.49
2023-02-06T02:53:50.708Z,1.48
2023-02-06T02:54:50.715Z,1.42
2023-02-06T02:55:50.742Z,1.35
2023-02-06T02:57:50.691Z,1.16
2023-02-06T02:58:51.188Z,1.10
2023-02-06T02:59:51.183Z,1.03
2023-02-06T03:00:50.737Z,0.94
2023-02-06T03:01:50.753Z,0.90
2023-02-06T03:02:50.572Z,0.85
2023-02-06T03:03:50.533Z,0.84
2023-02-06T03:04:50.558Z,0.82
2023-02-06T03:05:50.532Z,0.79
2023-02-06T03:06:50.555Z,0.75
2023-02-06T03:07:50.572Z,0.75
2023-02-06T03:08:50.633Z,0.66
2023-02-06T03:09:50.862Z,0.65
2023-02-06T03:10:50.838Z,0.63
2023-02-06T03:11:50.906Z,0.60
2023-02-06T03:13:50.934Z,0.65
2023-02-06T03:15:50.773Z,0.59
2023-02-06T03:16:50.684Z,0.55
2023-02-06T03:17:50.785Z,0.56
2023-02-06T03:18:50.646Z,0.59
2023-02-06T03:19:50.588Z,0.59
2023-02-06T03:20:50.557Z,0.57
2023-02-06T03:21:50.599Z,0.56
2023-02-06T03:22:50.624Z,0.53
2023-02-06T03:23:50.719Z,0.54
2023-02-06T03:24:50.756Z,0.57
2023-02-06T03:25:50.782Z,0.51
2023-02-06T03:26:50.845Z,0.52
2023-02-06T04:44:51.010Z,0.51
2023-02-06T04:55:51.269Z,0.60
2023-02-06T04:56:51.223Z,0.48
2023-02-06T04:57:51.272Z,0.56
2023-02-06T04:59:52.230Z,0.61
2023-02-06T05:00:51.751Z,0.61
2023-02-06T05:01:51.281Z,0.60
2023-02-06T05:02:51.416Z,0.56
2023-02-06T05:04:51.405Z,0.59
2023-02-06T05:05:51.198Z,0.53
2023-02-06T05:06:51.157Z,0.57
2023-02-06T05:07:51.236Z,0.55
2023-02-06T05:08:51.229Z,0.54
2023-02-06T05:09:52.230Z,0.61
2023-02-06T05:11:51.318Z,0.57
2023-02-06T05:12:51.363Z,0.61
2023-02-06T05:14:51.137Z,0.58
2023-02-06T05:15:51.294Z,0.58
2023-02-06T05:16:51.157Z,0.57
2023-02-06T05:17:51.143Z,0.54
2023-02-06T05:18:51.747Z,0.57
2023-02-06T05:19:51.164Z,0.60
2023-02-06T05:20:51.185Z,0.55
2023-02-06T05:21:51.151Z,0.55
2023-02-06T05:22:51.071Z,0.56
2023-02-06T05:23:51.070Z,0.57
2023-02-06T05:24:51.158Z,0.55
2023-02-06T05:25:51.197Z,0.62
2023-02-06T05:26:51.175Z,0.56
2023-02-06T05:27:51.361Z,0.59
2023-02-06T05:28:51.348Z,0.60
2023-02-06T05:29:51.286Z,0.57
2023-02-06T05:30:51.794Z,0.58
2023-02-06T05:31:51.365Z,0.59
2023-02-06T05:32:52.255Z,0.58
2023-02-06T05:33:52.773Z,0.62
2023-02-06T05:34:51.382Z,0.63
2023-02-06T05:35:51.323Z,0.64
2023-02-06T05:36:51.390Z,0.62
2023-02-06T05:37:51.316Z,0.61
2023-02-06T05:38:51.343Z,0.59
2023-02-06T05:39:51.328Z,0.66
2023-02-06T05:40:51.342Z,0.63
2023-02-06T05:41:51.294Z,0.62
2023-02-06T05:42:51.393Z,0.64
2023-02-06T05:43:52.230Z,0.61
2023-02-06T05:44:51.454Z,0.60
2023-02-06T05:45:51.323Z,0.62
2023-02-06T05:46:51.367Z,0.63
2023-02-06T05:47:51.240Z,0.58
2023-02-06T05:48:51.227Z,0.65
2023-02-06T05:49:51.219Z,0.59
2023-02-06T05:50:51.316Z,0.62
2023-02-06T05:51:51.555Z,0.56
2023-02-06T05:52:52.263Z,0.65
2023-02-06T05:53:51.429Z,0.58
2023-02-06T05:54:51.276Z,0.60
2023-02-06T05:55:51.385Z,0.67
2023-02-06T05:56:51.236Z,0.63
2023-02-06T05:57:51.211Z,0.68
2023-02-06T05:58:51.253Z,0.69
2023-02-06T05:59:51.289Z,0.66
2023-02-06T06:00:51.571Z,0.65
2023-02-06T06:01:51.430Z,0.63
2023-02-06T06:02:51.410Z,0.63
2023-02-06T06:03:51.552Z,0.64
2023-02-06T06:04:51.556Z,0.67
2023-02-06T06:05:51.546Z,0.64
2023-02-06T06:06:51.567Z,0.63
2023-02-06T06:07:51.546Z,0.65
2023-02-06T06:08:51.575Z,0.64
2023-02-06T06:09:51.613Z,0.66
2023-02-06T06:10:51.652Z,0.66
2023-02-06T06:11:51.728Z,0.69
2023-02-06T06:12:51.756Z,0.70
2023-02-06T06:13:51.758Z,0.67
2023-02-06T06:14:51.812Z,0.63
2023-02-06T06:15:51.960Z,0.68
2023-02-06T06:16:51.865Z,0.70
2023-02-06T06:17:51.906Z,0.91
2023-02-06T06:18:51.918Z,0.95
2023-02-06T06:19:51.994Z,1.11
2023-02-06T06:20:52.000Z,1.19
2023-02-06T06:21:52.049Z,1.36
2023-02-06T06:22:52.093Z,1.50
2023-02-06T06:23:52.116Z,1.64
2023-02-06T06:24:52.155Z,1.68
2023-02-06T06:25:52.236Z,1.87
2023-02-06T06:26:52.218Z,1.96
2023-02-06T06:27:52.298Z,2.02
2023-02-06T06:28:52.302Z,2.11
2023-02-06T06:29:52.335Z,2.08
2023-02-06T06:30:52.415Z,1.40
2023-02-06T06:31:52.470Z,1.07
2023-02-06T09:52:50.736Z,6.43
2023-02-06T09:58:50.867Z,6.80
2023-02-06T09:59:50.922Z,7.58
2023-02-06T10:10:50.681Z,6.45
2023-02-06T10:19:50.463Z,6.81
2023-02-06T10:26:50.243Z,6.94
2023-02-06T10:27:50.286Z,6.68
2023-02-06T10:28:50.242Z,6.45
2023-02-06T10:34:49.988Z,5.36
2023-02-06T10:35:49.954Z,4.93
2023-02-06T10:36:49.932Z,5.29
2023-02-06T10:38:49.845Z,5.94
2023-02-06T10:39:49.779Z,5.76
2023-02-06T10:40:49.844Z,5.90
2023-02-06T10:42:49.857Z,5.78
2023-02-06T10:43:49.726Z,6.68
2023-02-06T10:44:51.524Z,6.84
2023-02-06T10:45:49.545Z,7.59
2023-02-06T10:46:49.602Z,7.41
2023-02-06T10:47:49.576Z,7.50
2023-02-06T10:48:49.457Z,7.45
2023-02-06T10:49:49.408Z,7.43
2023-02-06T10:50:49.366Z,6.92
2023-02-06T10:51:49.356Z,7.12
2023-02-06T10:52:49.323Z,6.62
2023-02-06T10:53:49.260Z,6.28
2023-02-06T10:54:49.229Z,5.78
2023-02-06T10:55:49.512Z,6.05
2023-02-06T10:56:49.188Z,5.58
2023-02-06T10:57:49.204Z,4.96
2023-02-06T10:58:49.119Z,4.85
2023-02-06T10:59:49.089Z,5.08
2023-02-06T11:00:49.097Z,5.09
2023-02-06T11:01:49.072Z,4.96
2023-02-06T11:02:52.798Z,4.63
2023-02-06T11:04:49.090Z,4.66
2023-02-06T11:05:48.884Z,4.59
2023-02-06T11:06:48.840Z,4.54
2023-02-06T11:07:48.936Z,4.56
2023-02-06T11:08:48.778Z,4.29
2023-02-06T11:09:48.741Z,3.90
2023-02-06T11:10:48.706Z,3.92
2023-02-06T11:11:49.906Z,3.72
2023-02-06T11:12:48.657Z,3.41
2023-02-06T11:13:48.778Z,3.74
2023-02-06T11:14:48.769Z,3.82
2023-02-06T11:15:48.651Z,3.51
2023-02-06T11:16:48.866Z,3.47
2023-02-06T11:17:48.656Z,3.67
2023-02-06T11:18:48.490Z,3.61
2023-02-06T11:19:48.493Z,3.55
2023-02-06T11:20:48.462Z,3.56
2023-02-06T11:21:48.481Z,3.78
2023-02-06T11:22:53.148Z,3.55
2023-02-06T11:23:49.344Z,3.47
2023-02-06T11:24:48.288Z,3.55
2023-02-06T11:25:48.434Z,3.56
2023-02-06T11:26:48.270Z,3.32
2023-02-06T11:27:48.274Z,3.19
2023-02-06T11:28:48.207Z,3.30
2023-02-06T11:29:49.908Z,3.15
2023-02-06T11:30:48.155Z,3.42
2023-02-06T11:31:48.120Z,3.58
2023-02-06T11:33:02.661Z,3.67
2023-02-06T11:33:49.004Z,3.58
2023-02-06T11:34:48.111Z,3.73
2023-02-06T11:35:48.023Z,3.67
2023-02-06T11:36:48.015Z,3.68
2023-02-06T11:37:47.930Z,4.12
2023-02-06T11:38:47.870Z,4.99
2023-02-06T11:40:47.838Z,8.85
2023-02-06T11:42:47.895Z,8.91
2023-02-06T11:45:48.381Z,9.35
2023-02-06T12:05:47.924Z,1.62
2023-02-06T13:07:50.060Z,6.40
2023-02-06T13:22:44.443Z,5.26
2023-02-06T13:45:44.545Z,6.29
2023-02-06T14:00:43.910Z,6.71
2023-02-06T14:10:43.513Z,6.91
2023-02-06T14:24:43.657Z,7.18
2023-02-06T14:56:42.827Z,6.62
2023-02-06T14:57:42.744Z,6.55
2023-02-06T14:58:42.714Z,6.48
2023-02-06T14:59:42.721Z,6.60
2023-02-06T15:00:42.689Z,6.60
2023-02-06T15:01:42.631Z,6.58
2023-02-06T15:02:42.580Z,6.55
2023-02-06T15:03:42.529Z,6.44
2023-02-06T15:04:42.499Z,6.38
2023-02-06T15:05:42.443Z,6.46
2023-02-06T15:06:42.395Z,6.44
2023-02-06T15:07:42.370Z,6.55
2023-02-06T15:08:42.326Z,6.42
2023-02-06T15:09:42.269Z,6.43
2023-02-06T15:10:42.480Z,6.32
2023-02-06T15:11:42.186Z,6.36
2023-02-06T15:12:42.158Z,6.48
2023-02-06T15:13:42.136Z,6.46
2023-02-06T15:14:42.095Z,6.29
2023-02-06T15:15:42.450Z,6.41
2023-02-06T15:16:41.975Z,6.23
2023-02-06T15:17:41.950Z,6.21
2023-02-06T15:18:41.915Z,6.12
2023-02-06T15:19:41.873Z,6.20
2023-02-06T15:20:41.844Z,6.31
2023-02-06T15:21:41.771Z,6.26
2023-02-06T15:22:41.736Z,6.21
2023-02-06T15:23:42.461Z,6.13
2023-02-06T15:24:42.112Z,6.27
2023-02-06T15:25:43.665Z,6.22
2023-02-06T15:26:41.603Z,6.38
2023-02-06T15:27:41.616Z,6.23
2023-02-06T15:28:41.527Z,6.06
2023-02-06T15:29:41.478Z,6.07
2023-02-06T15:30:41.435Z,6.13
2023-02-06T15:31:41.460Z,6.07
2023-02-06T15:32:41.394Z,6.08
2023-02-06T15:33:41.313Z,6.09
2023-02-06T15:34:41.299Z,6.11
2023-02-06T15:35:41.264Z,6.11
2023-02-06T15:36:42.003Z,6.11
2023-02-06T15:37:41.117Z,6.16
2023-02-06T15:38:41.097Z,6.06
2023-02-06T15:39:41.063Z,6.10
2023-02-06T15:40:41.034Z,6.01
2023-02-06T15:41:40.988Z,6.12
2023-02-06T15:42:40.927Z,5.97
2023-02-06T15:43:40.899Z,5.86
2023-02-06T15:44:40.892Z,6.00
2023-02-06T15:45:40.822Z,5.98
2023-02-06T15:46:40.784Z,5.99
2023-02-06T15:47:40.720Z,6.01
2023-02-06T15:48:43.276Z,5.94
2023-02-06T15:49:40.628Z,6.06
2023-02-06T15:50:40.585Z,5.95
2023-02-06T15:51:40.568Z,5.87
2023-02-06T15:52:40.502Z,5.94
2023-02-06T15:53:40.508Z,5.97
2023-02-06T15:54:40.429Z,5.84
2023-02-06T15:55:40.420Z,5.82
2023-02-06T15:56:40.364Z,5.77
2023-02-06T15:57:40.348Z,5.82
2023-02-06T15:58:40.297Z,5.86
2023-02-06T15:59:40.237Z,5.74
2023-02-06T16:00:40.288Z,5.71
2023-02-06T16:01:40.157Z,5.68
2023-02-06T16:02:40.089Z,5.89
2023-02-06T16:03:40.052Z,5.80
2023-02-06T16:04:40.000Z,5.79
2023-02-06T16:05:40.000Z,5.73
2023-02-06T16:06:39.907Z,5.68
2023-02-06T16:07:39.883Z,5.70
2023-02-06T16:08:39.815Z,5.63
2023-02-06T16:09:39.785Z,5.67
2023-02-06T16:10:39.845Z,5.68
2023-02-06T16:11:39.699Z,5.69
2023-02-06T16:12:39.659Z,5.65
2023-02-06T16:13:39.609Z,5.62
2023-02-06T16:14:39.575Z,5.59
2023-02-06T16:15:39.530Z,5.59
2023-02-06T16:16:39.540Z,5.56
2023-02-06T16:17:39.458Z,5.56
2023-02-06T16:18:39.411Z,5.56
2023-02-06T16:19:39.365Z,5.50
2023-02-06T16:20:39.878Z,5.38
2023-02-06T16:21:39.270Z,5.46
2023-02-06T16:22:39.224Z,5.43
2023-02-06T16:23:39.163Z,5.42
2023-02-06T16:24:39.131Z,5.45
2023-02-06T16:25:39.111Z,5.40
2023-02-06T16:26:39.074Z,5.41
2023-02-06T16:27:39.023Z,5.38
2023-02-06T16:28:38.958Z,5.29
2023-02-06T16:29:38.958Z,5.29
2023-02-06T16:30:39.283Z,5.33
2023-02-06T16:31:39.013Z,5.29
2023-02-06T16:32:38.851Z,5.20
2023-02-06T16:33:38.792Z,5.33
2023-02-06T16:34:38.752Z,5.29
2023-02-06T16:35:39.476Z,5.13
2023-02-06T16:36:38.681Z,5.28
2023-02-06T16:37:38.629Z,5.17
2023-02-06T16:38:38.602Z,5.35
2023-02-06T16:39:38.573Z,5.18
2023-02-06T16:40:39.470Z,5.16
2023-02-06T16:41:38.505Z,5.30
2023-02-06T16:42:38.472Z,5.23
2023-02-06T16:43:38.429Z,5.12
2023-02-06T16:44:44.768Z,5.17
2023-02-06T16:45:39.326Z,5.18
2023-02-06T16:46:38.298Z,5.19
2023-02-06T16:47:38.284Z,5.22
2023-02-06T16:48:38.234Z,5.06
2023-02-06T16:49:38.167Z,5.18
2023-02-06T16:50:38.344Z,5.11
2023-02-06T16:51:38.072Z,5.07
2023-02-06T16:52:38.044Z,5.16
2023-02-06T16:53:38.011Z,5.13
2023-02-06T16:54:37.939Z,5.07
2023-02-06T16:55:37.904Z,5.13
2023-02-06T16:56:37.868Z,5.08
2023-02-06T16:57:37.812Z,5.03
2023-02-06T16:58:37.761Z,5.06
2023-02-06T16:59:37.831Z,5.02
2023-02-06T17:00:37.969Z,4.95
2023-02-06T17:01:37.641Z,5.05
2023-02-06T17:02:37.621Z,5.02
2023-02-06T17:03:37.641Z,4.94
2023-02-06T17:04:37.534Z,4.97
2023-02-06T17:05:38.008Z,5.00
2023-02-06T17:06:37.390Z,4.99
2023-02-06T17:07:37.346Z,4.94
2023-02-06T17:08:37.304Z,4.92
2023-02-06T17:09:37.248Z,4.98
2023-02-06T17:10:37.501Z,4.75
2023-02-06T17:11:37.213Z,4.89
2023-02-06T17:12:37.141Z,4.70
2023-02-06T17:13:37.090Z,4.84
2023-02-06T17:14:37.038Z,4.79
2023-02-06T17:15:37.020Z,4.80
2023-02-06T17:16:36.970Z,4.87
2023-02-06T17:17:36.934Z,4.72
2023-02-06T17:18:36.885Z,4.86
2023-02-06T17:19:36.844Z,4.73
2023-02-06T17:20:37.153Z,4.60
2023-02-06T17:21:36.726Z,4.78
2023-02-06T17:22:36.699Z,4.69
2023-02-06T17:23:37.021Z,4.73
2023-02-06T17:24:36.612Z,4.61
2023-02-06T17:25:36.823Z,4.68
2023-02-06T17:26:36.525Z,4.69
2023-02-06T17:27:36.468Z,4.67
2023-02-06T17:28:36.458Z,4.60
2023-02-06T17:29:36.401Z,4.72
2023-02-06T17:30:36.677Z,4.63
2023-02-06T17:31:36.341Z,4.69
2023-02-06T17:32:36.989Z,4.70
2023-02-06T17:33:36.274Z,4.63
2023-02-06T17:34:36.229Z,4.65
2023-02-06T17:35:36.175Z,4.66
2023-02-06T17:36:36.137Z,4.54
2023-02-06T17:37:36.125Z,4.52
2023-02-06T17:38:36.125Z,4.53
2023-02-06T17:39:36.041Z,4.54
2023-02-06T17:40:36.468Z,4.54
2023-02-06T17:41:36.489Z,4.54
2023-02-06T17:42:35.906Z,4.56
2023-02-06T17:43:35.877Z,4.54
2023-02-06T17:44:35.825Z,4.50
2023-02-06T17:45:36.095Z,4.45
2023-02-06T17:46:35.821Z,4.55
2023-02-06T17:47:35.733Z,4.46
2023-02-06T17:48:36.661Z,4.43
2023-02-06T17:49:35.613Z,4.41
2023-02-06T17:50:35.889Z,4.43
2023-02-06T17:51:35.533Z,4.50
2023-02-06T17:52:35.478Z,4.39
2023-02-06T17:53:35.437Z,4.42
2023-02-06T17:54:35.397Z,4.42
2023-02-06T17:55:35.374Z,4.39
2023-02-06T17:56:35.317Z,4.31
2023-02-06T17:57:35.284Z,4.38
2023-02-06T17:58:35.281Z,4.39
2023-02-06T17:59:35.200Z,4.38
2023-02-06T18:00:35.476Z,4.42
2023-02-06T18:01:35.145Z,4.41
2023-02-06T18:02:35.146Z,4.39
2023-02-06T18:03:35.502Z,4.39
2023-02-06T18:04:35.040Z,4.27
2023-02-06T18:05:35.189Z,4.43
2023-02-06T18:06:34.942Z,4.37
2023-02-06T18:07:34.900Z,4.46
2023-02-06T18:08:35.023Z,4.29
2023-02-06T18:09:34.837Z,4.37
2023-02-06T18:10:35.205Z,4.36
2023-02-06T18:11:34.762Z,4.37
2023-02-06T18:12:34.735Z,4.37
2023-02-06T18:13:34.688Z,4.33
2023-02-06T18:14:34.648Z,4.26
2023-02-06T18:15:34.582Z,4.35
2023-02-06T18:16:34.562Z,4.36
2023-02-06T18:17:34.512Z,4.37
2023-02-06T18:18:34.484Z,4.23
2023-02-06T18:19:34.531Z,4.23
2023-02-06T18:20:34.466Z,4.27
2023-02-06T18:21:35.040Z,4.20
2023-02-06T18:22:34.334Z,4.21
2023-02-06T18:23:34.294Z,4.28
2023-02-06T18:24:34.234Z,4.18
2023-02-06T18:25:34.375Z,4.32
2023-02-06T18:26:34.160Z,4.18
2023-02-06T18:27:34.130Z,4.19
2023-02-06T18:28:35.055Z,4.21
2023-02-06T18:29:47.515Z,4.20
2023-02-06T18:30:35.307Z,4.21
2023-02-06T18:31:34.033Z,4.20
2023-02-06T18:32:33.938Z,4.16
2023-02-06T18:33:33.904Z,4.18
2023-02-06T18:34:33.851Z,4.24
2023-02-06T18:35:33.793Z,4.09
2023-02-06T18:36:33.754Z,4.12
2023-02-06T18:37:33.715Z,4.15
2023-02-06T18:38:33.682Z,4.13
2023-02-06T18:39:33.643Z,4.05
2023-02-06T18:40:33.588Z,4.11
2023-02-06T18:41:33.557Z,4.15
2023-02-06T18:42:33.508Z,4.10
2023-02-06T18:43:33.503Z,4.06
2023-02-06T18:44:33.434Z,4.14
2023-02-06T18:45:33.418Z,4.05
2023-02-06T18:46:33.397Z,4.01
2023-02-06T18:47:33.319Z,4.07
2023-02-06T18:48:33.320Z,4.03
2023-02-06T18:49:33.224Z,4.06
2023-02-06T18:50:33.186Z,3.93
2023-02-06T18:51:33.154Z,3.99
2023-02-06T18:52:33.107Z,3.93
2023-02-06T18:53:33.132Z,4.08
2023-02-06T18:54:33.023Z,3.92
2023-02-06T18:55:33.031Z,3.99
2023-02-06T18:56:32.937Z,3.82
2023-02-06T18:57:32.891Z,3.96
2023-02-06T18:58:32.821Z,3.95
2023-02-06T18:59:32.825Z,3.97
2023-02-06T19:00:32.768Z,3.91
2023-02-06T19:01:32.742Z,3.91
2023-02-06T19:02:32.694Z,3.89
2023-02-06T19:03:32.650Z,3.84
2023-02-06T19:04:32.611Z,3.86
2023-02-06T19:05:32.567Z,4.01
2023-02-06T19:06:32.544Z,3.88
2023-02-06T19:07:32.498Z,3.80
2023-02-06T19:08:32.464Z,3.93
2023-02-06T19:09:32.441Z,3.79
2023-02-06T19:10:32.370Z,3.78
2023-02-06T19:11:32.351Z,3.79
2023-02-06T19:12:32.299Z,3.78
2023-02-06T19:13:32.269Z,3.77
2023-02-06T19:14:32.249Z,3.83
2023-02-06T19:15:32.181Z,3.80
2023-02-06T19:16:32.160Z,3.76
2023-02-06T19:17:32.090Z,3.73
2023-02-06T19:18:38.947Z,3.75
2023-02-06T19:19:33.000Z,3.75
2023-02-06T19:20:31.946Z,3.75
2023-02-06T19:21:31.910Z,3.77
2023-02-06T19:22:32.540Z,3.77
2023-02-06T19:23:31.810Z,3.83
2023-02-06T19:24:31.812Z,3.75
2023-02-06T19:25:31.732Z,3.83
2023-02-06T19:26:31.681Z,3.68
2023-02-06T19:27:31.623Z,3.68
2023-02-06T19:28:32.557Z,3.69
2023-02-06T19:29:36.195Z,3.73
2023-02-06T19:30:32.577Z,3.73
2023-02-06T19:31:31.474Z,3.73
2023-02-06T19:32:31.422Z,3.73
2023-02-06T19:33:31.375Z,3.75
2023-02-06T19:34:33.472Z,3.70
2023-02-06T19:35:31.299Z,3.88
2023-02-06T19:36:31.283Z,3.76
2023-02-06T19:37:31.199Z,3.63
2023-02-06T19:38:31.145Z,3.64
2023-02-06T19:39:31.112Z,3.74
2023-02-06T19:40:31.094Z,3.73
2023-02-06T19:41:31.047Z,3.63
2023-02-06T19:42:31.026Z,3.66
2023-02-06T19:43:30.985Z,3.64
2023-02-06T19:44:30.914Z,3.67
2023-02-06T19:45:30.886Z,3.66
2023-02-06T19:46:30.818Z,3.60
2023-02-06T19:47:30.789Z,3.73
2023-02-06T19:48:30.770Z,3.58
2023-02-06T19:49:30.769Z,3.65
2023-02-06T19:50:30.666Z,3.55
2023-02-06T19:51:30.665Z,3.57
2023-02-06T19:52:30.590Z,3.54
2023-02-06T19:53:30.535Z,3.53
2023-02-06T19:54:30.547Z,3.51
2023-02-06T19:55:30.488Z,3.51
2023-02-06T19:56:30.410Z,3.52
2023-02-06T19:57:30.392Z,3.52
2023-02-06T19:58:30.341Z,3.52
2023-02-06T19:59:30.320Z,3.60
2023-02-06T20:00:30.248Z,3.55
2023-02-06T20:01:30.193Z,3.48
2023-02-06T20:02:30.155Z,3.46
2023-02-06T20:03:30.324Z,3.43
2023-02-06T20:04:30.098Z,3.51
2023-02-06T20:05:30.559Z,3.44
2023-02-06T20:06:30.552Z,3.47
2023-02-06T20:07:30.580Z,3.51
2023-02-06T20:08:30.462Z,3.50
2023-02-06T20:09:29.873Z,3.54
2023-02-06T20:10:30.451Z,3.48
2023-02-06T20:11:30.476Z,3.41
2023-02-06T20:12:30.383Z,3.41
2023-02-06T20:13:30.240Z,3.41
2023-02-06T20:14:29.659Z,3.37
2023-02-06T20:15:29.636Z,3.37
2023-02-06T20:16:29.681Z,3.36
2023-02-06T20:17:29.565Z,3.31
2023-02-06T20:18:29.504Z,3.32
2023-02-06T20:19:29.453Z,3.42
2023-02-06T20:20:29.428Z,3.41
2023-02-06T20:21:30.065Z,3.36
2023-02-06T20:22:29.337Z,3.37
2023-02-06T20:23:29.308Z,3.41
2023-02-06T20:24:29.264Z,3.35
2023-02-06T20:25:29.267Z,3.37
2023-02-06T20:26:29.214Z,3.33
2023-02-06T20:27:29.156Z,3.40
2023-02-06T20:28:29.100Z,3.29
2023-02-06T20:29:29.172Z,3.28
2023-02-06T20:30:29.059Z,3.24
2023-02-06T20:31:29.136Z,3.29
2023-02-06T20:32:28.988Z,3.30
2023-02-06T20:33:28.939Z,3.29
2023-02-06T20:34:28.918Z,3.32
2023-02-06T20:35:28.869Z,3.26
2023-02-06T20:36:28.841Z,3.22
2023-02-06T20:37:29.866Z,3.26
2023-02-06T20:38:28.754Z,3.30
2023-02-06T20:39:28.848Z,3.26
2023-02-06T20:40:28.695Z,3.27
2023-02-06T20:41:28.724Z,3.28
2023-02-06T20:42:28.583Z,3.33
2023-02-06T20:43:28.720Z,3.22
2023-02-06T20:44:29.735Z,3.19
2023-02-06T20:45:28.499Z,3.18
2023-02-06T20:46:28.487Z,3.24
2023-02-06T20:47:28.406Z,3.21
2023-02-06T20:48:28.366Z,3.18
2023-02-06T20:49:28.829Z,3.21
2023-02-06T20:50:29.654Z,3.14
2023-02-06T20:51:28.648Z,3.19
2023-02-06T20:52:28.265Z,3.18
2023-02-06T20:53:28.222Z,3.16
2023-02-06T20:54:28.258Z,3.12
2023-02-06T20:55:28.164Z,3.19
2023-02-06T20:56:28.317Z,3.23
2023-02-06T20:57:28.167Z,3.13
2023-02-06T20:58:28.100Z,3.17
2023-02-06T20:59:28.058Z,3.07
2023-02-06T21:00:28.156Z,3.14
2023-02-06T21:01:28.254Z,3.13
2023-02-06T21:02:28.014Z,3.04
2023-02-06T21:03:27.986Z,3.10
2023-02-06T21:04:27.991Z,3.10
2023-02-06T21:05:27.679Z,3.15
2023-02-06T21:06:27.988Z,3.14
2023-02-06T21:07:27.943Z,3.07
2023-02-06T21:08:27.944Z,3.06
2023-02-06T21:09:28.006Z,3.06
2023-02-06T21:10:27.911Z,3.08
2023-02-06T21:11:27.896Z,3.10
2023-02-06T21:12:27.439Z,3.01
2023-02-06T21:13:27.375Z,3.10
2023-02-06T21:14:27.339Z,3.05
2023-02-06T21:15:27.356Z,3.00
2023-02-06T21:16:27.265Z,3.08
2023-02-06T21:17:27.255Z,3.03
2023-02-06T21:18:27.200Z,3.03
2023-02-06T21:19:29.074Z,2.99
2023-02-06T21:20:27.105Z,3.06
2023-02-06T21:21:27.078Z,3.04
2023-02-06T21:22:27.051Z,2.97
2023-02-06T21:23:26.994Z,2.95
2023-02-06T21:24:26.940Z,3.01
2023-02-06T21:25:26.906Z,2.93
2023-02-06T21:26:26.883Z,2.93
2023-02-06T21:27:26.878Z,2.96
2023-02-06T21:28:27.568Z,2.96
2023-02-06T21:29:26.799Z,2.99
2023-02-06T21:30:26.747Z,2.93
2023-02-06T21:31:26.727Z,2.95
2023-02-06T21:32:26.616Z,2.90
2023-02-06T21:33:26.645Z,2.93
2023-02-06T21:34:26.521Z,2.88
2023-02-06T21:35:26.498Z,2.87
2023-02-06T21:36:26.465Z,2.83
2023-02-06T21:37:26.433Z,2.93
2023-02-06T21:38:26.385Z,2.91
2023-02-06T21:39:26.323Z,2.95
2023-02-06T21:40:26.289Z,2.87
2023-02-06T21:41:26.255Z,2.92
2023-02-06T21:42:26.257Z,2.88
2023-02-06T21:43:26.172Z,2.91
2023-02-06T21:44:26.150Z,2.90
2023-02-06T21:45:26.118Z,2.90
2023-02-06T21:46:26.092Z,2.89
2023-02-06T21:47:26.026Z,2.86
2023-02-06T21:48:25.960Z,2.81
2023-02-06T21:49:25.910Z,2.81
2023-02-06T21:50:25.872Z,2.82
2023-02-06T21:51:25.847Z,2.84
2023-02-06T21:52:25.807Z,2.87
2023-02-06T21:53:25.754Z,2.90
2023-02-06T21:54:25.699Z,2.86
2023-02-06T21:55:25.663Z,2.83
2023-02-06T21:56:25.614Z,2.88
2023-02-06T21:57:25.587Z,2.80
2023-02-06T21:58:25.550Z,2.81
2023-02-06T21:59:25.493Z,2.83